sensor_id;sensor_type;location;lat;lon;timestamp;pressure;altitude;pressure_sealevel;temperature;humidity
9831;BME280;4954;48.476;8.168;2024-02-15T00:00:32;98903.47;;;9.16;nan
9831;BME280;4954;48.476;8.168;2024-02-15T00:02:59;98905.84;;;9.10;nan
9831;BME280;4954;48.476;8.168;2024-02-15T00:05:26;98900.63;;;9.04;nan
9831;BME280;4954;48.476;8.168;2024-02-15T00:07:53;98904.63;;;8.93;nan
9831;BME280;4954;48.476;8.168;2024-02-15T00:10:21;98897.66;;;8.85;nan
9831;BME280;4954;48.476;8.168;2024-02-15T00:12:51;98891.53;;;8.77;nan
9831;BME280;4954;48.476;8.168;2024-02-15T00:15:18;98898.91;;;8.68;nan
9831;BME280;4954;48.476;8.168;2024-02-15T00:17:45;98894.50;;;8.59;nan
9831;BME280;4954;48.476;8.168;2024-02-15T00:20:13;98899.34;;;8.50;nan
9831;BME280;4954;48.476;8.168;2024-02-15T00:22:40;98897.34;;;8.39;nan
9831;BME280;4954;48.476;8.168;2024-02-15T00:25:07;98895.44;;;8.30;nan
9831;BME280;4954;48.476;8.168;2024-02-15T00:27:36;98891.06;;;8.25;nan
9831;BME280;4954;48.476;8.168;2024-02-15T00:30:06;98891.81;;;8.21;nan
9831;BME280;4954;48.476;8.168;2024-02-15T00:32:35;98888.28;;;8.17;nan
9831;BME280;4954;48.476;8.168;2024-02-15T00:35:02;98876.44;;;8.16;nan
9831;BME280;4954;48.476;8.168;2024-02-15T00:37:31;98882.25;;;8.11;nan
9831;BME280;4954;48.476;8.168;2024-02-15T00:39:58;98891.34;;;8.04;nan
9831;BME280;4954;48.476;8.168;2024-02-15T00:42:25;98890.47;;;8.04;nan
9831;BME280;4954;48.476;8.168;2024-02-15T00:44:53;98884.38;;;7.97;nan
9831;BME280;4954;48.476;8.168;2024-02-15T00:47:21;98895.28;;;7.95;nan
9831;BME280;4954;48.476;8.168;2024-02-15T00:49:48;98887.59;;;7.90;nan
9831;BME280;4954;48.476;8.168;2024-02-15T00:52:15;98890.94;;;7.89;nan
9831;BME280;4954;48.476;8.168;2024-02-15T00:54:43;98888.25;;;7.85;nan
9831;BME280;4954;48.476;8.168;2024-02-15T00:57:10;98886.44;;;7.79;nan
9831;BME280;4954;48.476;8.168;2024-02-15T00:59:37;98892.25;;;7.75;nan
9831;BME280;4954;48.476;8.168;2024-02-15T01:02:04;98898.91;;;7.72;nan
9831;BME280;4954;48.476;8.168;2024-02-15T01:04:34;98903.03;;;7.68;nan
9831;BME280;4954;48.476;8.168;2024-02-15T01:07:01;98892.81;;;7.65;nan
9831;BME280;4954;48.476;8.168;2024-02-15T01:09:28;98896.06;;;7.61;nan
9831;BME280;4954;48.476;8.168;2024-02-15T01:11:55;98893.38;;;7.55;nan
9831;BME280;4954;48.476;8.168;2024-02-15T01:14:22;98893.25;;;7.52;nan
9831;BME280;4954;48.476;8.168;2024-02-15T01:16:49;98895.69;;;7.48;nan
9831;BME280;4954;48.476;8.168;2024-02-15T01:19:16;98903.22;;;7.46;nan
9831;BME280;4954;48.476;8.168;2024-02-15T01:21:44;98886.22;;;7.42;nan
9831;BME280;4954;48.476;8.168;2024-02-15T01:24:11;98895.47;;;7.40;nan
9831;BME280;4954;48.476;8.168;2024-02-15T01:26:38;98898.66;;;7.35;nan
9831;BME280;4954;48.476;8.168;2024-02-15T01:29:05;98897.59;;;7.28;nan
9831;BME280;4954;48.476;8.168;2024-02-15T01:31:37;98905.84;;;7.21;nan
9831;BME280;4954;48.476;8.168;2024-02-15T01:34:05;98903.19;;;7.17;nan
9831;BME280;4954;48.476;8.168;2024-02-15T01:36:32;98902.22;;;7.13;nan
9831;BME280;4954;48.476;8.168;2024-02-15T01:39:00;98897.91;;;7.09;nan
9831;BME280;4954;48.476;8.168;2024-02-15T01:41:27;98904.50;;;7.04;nan
9831;BME280;4954;48.476;8.168;2024-02-15T01:43:53;98899.22;;;6.98;nan
9831;BME280;4954;48.476;8.168;2024-02-15T01:46:21;98899.19;;;6.97;nan
9831;BME280;4954;48.476;8.168;2024-02-15T01:48:49;98896.41;;;6.89;nan
9831;BME280;4954;48.476;8.168;2024-02-15T01:51:16;98887.81;;;6.83;nan
9831;BME280;4954;48.476;8.168;2024-02-15T01:53:44;98885.09;;;6.78;nan
9831;BME280;4954;48.476;8.168;2024-02-15T01:56:16;98893.47;;;6.76;nan
9831;BME280;4954;48.476;8.168;2024-02-15T01:58:45;98890.94;;;6.76;nan
9831;BME280;4954;48.476;8.168;2024-02-15T02:01:13;98879.81;;;6.71;nan
9831;BME280;4954;48.476;8.168;2024-02-15T02:03:41;98881.41;;;6.67;nan
9831;BME280;4954;48.476;8.168;2024-02-15T02:06:09;98883.88;;;6.66;nan
9831;BME280;4954;48.476;8.168;2024-02-15T02:08:36;98867.69;;;6.61;nan
9831;BME280;4954;48.476;8.168;2024-02-15T02:11:03;98881.91;;;6.57;nan
9831;BME280;4954;48.476;8.168;2024-02-15T02:13:31;98880.97;;;6.54;nan
9831;BME280;4954;48.476;8.168;2024-02-15T02:15:59;98874.03;;;6.48;nan
9831;BME280;4954;48.476;8.168;2024-02-15T02:18:26;98865.56;;;6.46;nan
9831;BME280;4954;48.476;8.168;2024-02-15T02:20:53;98867.13;;;6.43;nan
9831;BME280;4954;48.476;8.168;2024-02-15T02:23:21;98867.97;;;6.43;nan
9831;BME280;4954;48.476;8.168;2024-02-15T02:25:54;98868.09;;;6.46;nan
9831;BME280;4954;48.476;8.168;2024-02-15T02:28:22;98875.72;;;6.48;nan
9831;BME280;4954;48.476;8.168;2024-02-15T02:30:48;98872.22;;;6.44;nan
9831;BME280;4954;48.476;8.168;2024-02-15T02:33:16;98871.19;;;6.39;nan
9831;BME280;4954;48.476;8.168;2024-02-15T02:35:44;98872.78;;;6.36;nan
9831;BME280;4954;48.476;8.168;2024-02-15T02:38:12;98873.44;;;6.30;nan
9831;BME280;4954;48.476;8.168;2024-02-15T02:40:40;98869.88;;;6.25;nan
9831;BME280;4954;48.476;8.168;2024-02-15T02:43:08;98862.22;;;6.22;nan
9831;BME280;4954;48.476;8.168;2024-02-15T02:45:36;98861.28;;;6.20;nan
9831;BME280;4954;48.476;8.168;2024-02-15T02:48:03;98865.41;;;6.17;nan
9831;BME280;4954;48.476;8.168;2024-02-15T02:50:32;98864.56;;;6.16;nan
9831;BME280;4954;48.476;8.168;2024-02-15T02:52:59;98869.56;;;6.15;nan
9831;BME280;4954;48.476;8.168;2024-02-15T02:55:26;98859.38;;;6.13;nan
9831;BME280;4954;48.476;8.168;2024-02-15T02:57:53;98860.84;;;6.07;nan
9831;BME280;4954;48.476;8.168;2024-02-15T03:00:23;98872.59;;;6.05;nan
9831;BME280;4954;48.476;8.168;2024-02-15T03:02:50;98872.53;;;6.03;nan
9831;BME280;4954;48.476;8.168;2024-02-15T03:05:16;98870.75;;;6.01;nan
9831;BME280;4954;48.476;8.168;2024-02-15T03:07:46;98871.50;;;5.98;nan
9831;BME280;4954;48.476;8.168;2024-02-15T03:10:13;98870.63;;;5.96;nan
9831;BME280;4954;48.476;8.168;2024-02-15T03:12:40;98875.47;;;5.92;nan
9831;BME280;4954;48.476;8.168;2024-02-15T03:15:09;98871.19;;;5.89;nan
9831;BME280;4954;48.476;8.168;2024-02-15T03:17:42;98871.88;;;5.85;nan
9831;BME280;4954;48.476;8.168;2024-02-15T03:20:11;98875.22;;;5.84;nan
9831;BME280;4954;48.476;8.168;2024-02-15T03:22:50;98877.66;;;5.81;nan
9831;BME280;4954;48.476;8.168;2024-02-15T03:25:17;98874.31;;;5.82;nan
9831;BME280;4954;48.476;8.168;2024-02-15T03:27:44;98866.50;;;5.76;nan
9831;BME280;4954;48.476;8.168;2024-02-15T03:30:12;98868.03;;;5.73;nan
9831;BME280;4954;48.476;8.168;2024-02-15T03:32:40;98871.38;;;5.72;nan
9831;BME280;4954;48.476;8.168;2024-02-15T03:35:08;98868.78;;;5.70;nan
9831;BME280;4954;48.476;8.168;2024-02-15T03:37:35;98868.78;;;5.70;nan
9831;BME280;4954;48.476;8.168;2024-02-15T03:40:06;98865.38;;;5.68;nan
9831;BME280;4954;48.476;8.168;2024-02-15T03:42:33;98873.63;;;5.64;nan
9831;BME280;4954;48.476;8.168;2024-02-15T03:45:02;98878.56;;;5.61;nan
9831;BME280;4954;48.476;8.168;2024-02-15T03:47:31;98881.81;;;5.57;nan
9831;BME280;4954;48.476;8.168;2024-02-15T03:50:00;98886.69;;;5.53;nan
9831;BME280;4954;48.476;8.168;2024-02-15T03:52:27;98873.09;;;5.49;nan
9831;BME280;4954;48.476;8.168;2024-02-15T03:54:55;98880.53;;;5.46;nan
9831;BME280;4954;48.476;8.168;2024-02-15T03:57:23;98872.13;;;5.46;nan
9831;BME280;4954;48.476;8.168;2024-02-15T03:59:50;98869.53;;;5.44;nan
9831;BME280;4954;48.476;8.168;2024-02-15T04:02:18;98864.34;;;5.40;nan
9831;BME280;4954;48.476;8.168;2024-02-15T04:04:45;98868.38;;;5.35;nan
9831;BME280;4954;48.476;8.168;2024-02-15T04:07:15;98861.50;;;5.31;nan
9831;BME280;4954;48.476;8.168;2024-02-15T04:09:42;98867.28;;;5.28;nan
9831;BME280;4954;48.476;8.168;2024-02-15T04:12:09;98864.75;;;5.28;nan
9831;BME280;4954;48.476;8.168;2024-02-15T04:14:37;98869.91;;;5.31;nan
9831;BME280;4954;48.476;8.168;2024-02-15T04:17:04;98862.09;;;5.25;nan
9831;BME280;4954;48.476;8.168;2024-02-15T04:19:31;98876.41;;;5.25;nan
9831;BME280;4954;48.476;8.168;2024-02-15T04:21:58;98866.19;;;5.22;nan
9831;BME280;4954;48.476;8.168;2024-02-15T04:24:49;98869.31;;;5.15;nan
9831;BME280;4954;48.476;8.168;2024-02-15T04:27:19;98870.06;;;5.12;nan
9831;BME280;4954;48.476;8.168;2024-02-15T04:29:46;98867.47;;;5.11;nan
9831;BME280;4954;48.476;8.168;2024-02-15T04:32:13;98866.59;;;5.10;nan
9831;BME280;4954;48.476;8.168;2024-02-15T04:34:41;98873.13;;;5.05;nan
9831;BME280;4954;48.476;8.168;2024-02-15T04:37:08;98869.69;;;5.03;nan
9831;BME280;4954;48.476;8.168;2024-02-15T04:39:35;98867.94;;;5.02;nan
9831;BME280;4954;48.476;8.168;2024-02-15T04:42:04;98868.81;;;5.03;nan
9831;BME280;4954;48.476;8.168;2024-02-15T04:44:36;98863.50;;;4.95;nan
9831;BME280;4954;48.476;8.168;2024-02-15T04:47:06;98857.41;;;4.90;nan
9831;BME280;4954;48.476;8.168;2024-02-15T04:49:34;98850.72;;;4.91;nan
9831;BME280;4954;48.476;8.168;2024-02-15T04:52:03;98854.09;;;4.91;nan
9831;BME280;4954;48.476;8.168;2024-02-15T04:54:31;98859.06;;;4.90;nan
9831;BME280;4954;48.476;8.168;2024-02-15T04:56:59;98858.22;;;4.89;nan
9831;BME280;4954;48.476;8.168;2024-02-15T04:59:37;98864.09;;;4.88;nan
9831;BME280;4954;48.476;8.168;2024-02-15T05:02:13;98865.78;;;4.89;nan
9831;BME280;4954;48.476;8.168;2024-02-15T05:04:50;98847.91;;;4.83;nan
9831;BME280;4954;48.476;8.168;2024-02-15T05:07:29;98849.28;;;4.75;nan
9831;BME280;4954;48.476;8.168;2024-02-15T05:09:56;98848.25;;;4.70;nan
9831;BME280;4954;48.476;8.168;2024-02-15T05:12:25;98839.56;;;4.64;nan
9831;BME280;4954;48.476;8.168;2024-02-15T05:15:11;98837.94;;;4.64;nan
9831;BME280;4954;48.476;8.168;2024-02-15T05:17:38;98843.06;;;4.67;nan
9831;BME280;4954;48.476;8.168;2024-02-15T05:20:08;98833.78;;;4.66;nan
9831;BME280;4954;48.476;8.168;2024-02-15T05:22:38;98842.44;;;4.73;nan
9831;BME280;4954;48.476;8.168;2024-02-15T05:25:09;98838.31;;;4.75;nan
9831;BME280;4954;48.476;8.168;2024-02-15T05:27:41;98846.81;;;4.77;nan
9831;BME280;4954;48.476;8.168;2024-02-15T05:30:21;98844.91;;;4.71;nan
9831;BME280;4954;48.476;8.168;2024-02-15T05:32:58;98838.38;;;4.76;nan
9831;BME280;4954;48.476;8.168;2024-02-15T05:35:25;98841.78;;;4.77;nan
9831;BME280;4954;48.476;8.168;2024-02-15T05:37:53;98839.19;;;4.75;nan
9831;BME280;4954;48.476;8.168;2024-02-15T05:40:21;98836.50;;;4.71;nan
9831;BME280;4954;48.476;8.168;2024-02-15T05:42:54;98829.78;;;4.71;nan
9831;BME280;4954;48.476;8.168;2024-02-15T05:45:29;98818.00;;;4.70;nan
9831;BME280;4954;48.476;8.168;2024-02-15T05:47:58;98823.19;;;4.75;nan
9831;BME280;4954;48.476;8.168;2024-02-15T05:50:27;98827.34;;;4.73;nan
9831;BME280;4954;48.476;8.168;2024-02-15T05:52:56;98816.34;;;4.71;nan
9831;BME280;4954;48.476;8.168;2024-02-15T05:55:24;98833.28;;;4.75;nan
9831;BME280;4954;48.476;8.168;2024-02-15T05:57:56;98836.22;;;4.85;nan
9831;BME280;4954;48.476;8.168;2024-02-15T06:00:23;98838.88;;;4.88;nan
9831;BME280;4954;48.476;8.168;2024-02-15T06:02:50;98825.44;;;4.89;nan
9831;BME280;4954;48.476;8.168;2024-02-15T06:05:18;98822.06;;;4.89;nan
9831;BME280;4954;48.476;8.168;2024-02-15T06:10:33;98821.97;;;4.86;nan
9831;BME280;4954;48.476;8.168;2024-02-15T06:13:01;98824.41;;;4.84;nan
9831;BME280;4954;48.476;8.168;2024-02-15T06:15:28;98817.59;;;4.82;nan
9831;BME280;4954;48.476;8.168;2024-02-15T06:17:55;98820.06;;;4.80;nan
9831;BME280;4954;48.476;8.168;2024-02-15T06:20:22;98820.81;;;4.78;nan
9831;BME280;4954;48.476;8.168;2024-02-15T06:22:52;98817.47;;;4.79;nan
9831;BME280;4954;48.476;8.168;2024-02-15T06:25:22;98809.22;;;4.83;nan
9831;BME280;4954;48.476;8.168;2024-02-15T06:27:49;98808.50;;;4.85;nan
9831;BME280;4954;48.476;8.168;2024-02-15T06:30:26;98801.06;;;4.90;nan
9831;BME280;4954;48.476;8.168;2024-02-15T06:33:18;98800.34;;;4.92;nan
9831;BME280;4954;48.476;8.168;2024-02-15T06:36:05;98805.44;;;4.94;nan
9831;BME280;4954;48.476;8.168;2024-02-15T06:38:49;98803.84;;;4.96;nan
9831;BME280;4954;48.476;8.168;2024-02-15T06:41:34;98797.47;;;5.05;nan
9831;BME280;4954;48.476;8.168;2024-02-15T06:44:01;98798.56;;;5.12;nan
9831;BME280;4954;48.476;8.168;2024-02-15T06:46:29;98796.94;;;5.14;nan
9831;BME280;4954;48.476;8.168;2024-02-15T06:48:56;98807.97;;;5.16;nan
9831;BME280;4954;48.476;8.168;2024-02-15T06:51:23;98795.41;;;5.17;nan
9831;BME280;4954;48.476;8.168;2024-02-15T06:53:50;98796.31;;;5.19;nan
9831;BME280;4954;48.476;8.168;2024-02-15T06:56:21;98794.00;;;5.25;nan
9831;BME280;4954;48.476;8.168;2024-02-15T06:58:58;98789.97;;;5.30;nan
9831;BME280;4954;48.476;8.168;2024-02-15T07:01:26;98782.66;;;5.38;nan
9831;BME280;4954;48.476;8.168;2024-02-15T07:03:55;98778.81;;;5.47;nan
9831;BME280;4954;48.476;8.168;2024-02-15T07:06:22;98772.34;;;5.55;nan
9831;BME280;4954;48.476;8.168;2024-02-15T07:08:49;98763.31;;;5.62;nan
9831;BME280;4954;48.476;8.168;2024-02-15T07:11:19;98762.56;;;5.64;nan
9831;BME280;4954;48.476;8.168;2024-02-15T07:13:55;98755.19;;;5.70;nan
9831;BME280;4954;48.476;8.168;2024-02-15T07:16:25;98761.50;;;5.81;nan
9831;BME280;4954;48.476;8.168;2024-02-15T07:18:52;98772.91;;;5.95;nan
9831;BME280;4954;48.476;8.168;2024-02-15T07:21:21;98759.81;;;6.07;nan
9831;BME280;4954;48.476;8.168;2024-02-15T07:23:51;98754.28;;;6.18;nan
9831;BME280;4954;48.476;8.168;2024-02-15T07:26:19;98758.69;;;6.24;nan
9831;BME280;4954;48.476;8.168;2024-02-15T07:28:49;98759.00;;;6.34;nan
9831;BME280;4954;48.476;8.168;2024-02-15T07:31:18;98751.72;;;6.43;nan
9831;BME280;4954;48.476;8.168;2024-02-15T07:33:47;98749.56;;;6.55;nan
9831;BME280;4954;48.476;8.168;2024-02-15T07:36:18;98735.38;;;6.60;nan
9831;BME280;4954;48.476;8.168;2024-02-15T07:38:48;98736.38;;;6.65;nan
9831;BME280;4954;48.476;8.168;2024-02-15T07:41:16;98737.44;;;6.73;nan
9831;BME280;4954;48.476;8.168;2024-02-15T07:43:45;98744.63;;;6.88;nan
9831;BME280;4954;48.476;8.168;2024-02-15T07:46:12;98748.44;;;7.03;nan
9831;BME280;4954;48.476;8.168;2024-02-15T07:48:41;98751.38;;;7.18;nan
9831;BME280;4954;48.476;8.168;2024-02-15T07:51:11;98755.19;;;7.34;nan
9831;BME280;4954;48.476;8.168;2024-02-15T07:53:40;98759.78;;;7.48;nan
9831;BME280;4954;48.476;8.168;2024-02-15T07:56:09;98757.88;;;7.71;nan
9831;BME280;4954;48.476;8.168;2024-02-15T07:58:38;98749.44;;;8.04;nan
9831;BME280;4954;48.476;8.168;2024-02-15T08:01:08;98749.88;;;8.58;nan
9831;BME280;4954;48.476;8.168;2024-02-15T08:03:35;98752.72;;;9.11;nan
9831;BME280;4954;48.476;8.168;2024-02-15T08:06:03;98737.81;;;9.72;nan
9831;BME280;4954;48.476;8.168;2024-02-15T08:08:33;98732.25;;;9.94;nan
9831;BME280;4954;48.476;8.168;2024-02-15T08:11:02;98735.31;;;10.23;nan
9831;BME280;4954;48.476;8.168;2024-02-15T08:13:33;98727.13;;;10.43;nan
9831;BME280;4954;48.476;8.168;2024-02-15T08:16:01;98732.19;;;10.43;nan
9831;BME280;4954;48.476;8.168;2024-02-15T08:18:30;98720.41;;;10.47;nan
9831;BME280;4954;48.476;8.168;2024-02-15T08:21:09;98713.28;;;10.25;nan
9831;BME280;4954;48.476;8.168;2024-02-15T08:23:51;98706.38;;;10.16;nan
9831;BME280;4954;48.476;8.168;2024-02-15T08:26:18;98721.53;;;10.10;nan
9831;BME280;4954;48.476;8.168;2024-02-15T08:31:31;98712.81;;;9.96;nan
9831;BME280;4954;48.476;8.168;2024-02-15T08:33:59;98710.88;;;9.83;nan
9831;BME280;4954;48.476;8.168;2024-02-15T08:36:27;98708.44;;;9.88;nan
9831;BME280;4954;48.476;8.168;2024-02-15T08:39:02;98694.97;;;9.95;nan
9831;BME280;4954;48.476;8.168;2024-02-15T08:41:30;98689.28;;;10.09;nan
9831;BME280;4954;48.476;8.168;2024-02-15T08:43:58;98689.66;;;10.32;nan
9831;BME280;4954;48.476;8.168;2024-02-15T08:46:26;98687.41;;;10.53;nan
9831;BME280;4954;48.476;8.168;2024-02-15T08:48:54;98680.25;;;10.90;nan
9831;BME280;4954;48.476;8.168;2024-02-15T08:51:33;98676.44;;;11.27;nan
9831;BME280;4954;48.476;8.168;2024-02-15T08:54:01;98661.69;;;11.81;nan
9831;BME280;4954;48.476;8.168;2024-02-15T08:56:28;98660.31;;;12.29;nan
9831;BME280;4954;48.476;8.168;2024-02-15T08:58:55;98659.94;;;13.26;nan
9831;BME280;4954;48.476;8.168;2024-02-15T09:01:26;98642.94;;;14.00;nan
9831;BME280;4954;48.476;8.168;2024-02-15T09:03:55;98637.75;;;14.51;nan
9831;BME280;4954;48.476;8.168;2024-02-15T09:06:22;98640.22;;;14.78;nan
9831;BME280;4954;48.476;8.168;2024-02-15T09:08:49;98633.97;;;15.32;nan
9831;BME280;4954;48.476;8.168;2024-02-15T09:11:17;98632.28;;;15.26;nan
9831;BME280;4954;48.476;8.168;2024-02-15T09:13:57;98624.47;;;15.52;nan
9831;BME280;4954;48.476;8.168;2024-02-15T09:16:25;98623.34;;;15.84;nan
9831;BME280;4954;48.476;8.168;2024-02-15T09:18:52;98626.69;;;15.94;nan
9831;BME280;4954;48.476;8.168;2024-02-15T09:21:20;98623.44;;;16.64;nan
9831;BME280;4954;48.476;8.168;2024-02-15T09:23:48;98613.88;;;16.75;nan
9831;BME280;4954;48.476;8.168;2024-02-15T09:26:17;98614.59;;;16.83;nan
9831;BME280;4954;48.476;8.168;2024-02-15T09:28:47;98609.06;;;17.15;nan
9831;BME280;4954;48.476;8.168;2024-02-15T09:31:40;98604.56;;;17.29;nan
9831;BME280;4954;48.476;8.168;2024-02-15T09:34:13;98612.63;;;17.05;nan
9831;BME280;4954;48.476;8.168;2024-02-15T09:36:40;98602.22;;;17.12;nan
9831;BME280;4954;48.476;8.168;2024-02-15T09:39:07;98606.69;;;16.98;nan
9831;BME280;4954;48.476;8.168;2024-02-15T09:41:34;98606.88;;;16.86;nan
9831;BME280;4954;48.476;8.168;2024-02-15T09:44:01;98605.59;;;16.51;nan
9831;BME280;4954;48.476;8.168;2024-02-15T09:46:34;98601.06;;;16.71;nan
9831;BME280;4954;48.476;8.168;2024-02-15T09:49:03;98596.50;;;16.92;nan
9831;BME280;4954;48.476;8.168;2024-02-15T09:51:33;98592.06;;;17.03;nan
9831;BME280;4954;48.476;8.168;2024-02-15T09:54:02;98587.31;;;17.35;nan
9831;BME280;4954;48.476;8.168;2024-02-15T09:56:32;98582.63;;;17.63;nan
9831;BME280;4954;48.476;8.168;2024-02-15T09:59:01;98584.81;;;17.85;nan
9831;BME280;4954;48.476;8.168;2024-02-15T10:01:31;98583.94;;;17.86;nan
9831;BME280;4954;48.476;8.168;2024-02-15T10:03:58;98585.72;;;17.84;nan
9831;BME280;4954;48.476;8.168;2024-02-15T10:06:31;98581.34;;;17.88;nan
9831;BME280;4954;48.476;8.168;2024-02-15T10:09:27;98592.16;;;18.08;nan
9831;BME280;4954;48.476;8.168;2024-02-15T10:11:55;98585.69;;;17.86;nan
9831;BME280;4954;48.476;8.168;2024-02-15T10:14:28;98591.09;;;17.69;nan
9831;BME280;4954;48.476;8.168;2024-02-15T10:17:18;98586.38;;;17.44;nan
9831;BME280;4954;48.476;8.168;2024-02-15T10:20:02;98590.38;;;17.01;nan
9831;BME280;4954;48.476;8.168;2024-02-15T10:22:30;98588.44;;;17.18;nan
9831;BME280;4954;48.476;8.168;2024-02-15T10:25:11;98589.66;;;16.91;nan
9831;BME280;4954;48.476;8.168;2024-02-15T10:27:39;98591.25;;;17.01;nan
9831;BME280;4954;48.476;8.168;2024-02-15T10:30:14;98589.03;;;17.39;nan
9831;BME280;4954;48.476;8.168;2024-02-15T10:32:44;98581.31;;;17.39;nan
9831;BME280;4954;48.476;8.168;2024-02-15T10:35:19;98579.53;;;17.43;nan
9831;BME280;4954;48.476;8.168;2024-02-15T10:37:47;98577.84;;;17.37;nan
9831;BME280;4954;48.476;8.168;2024-02-15T10:40:17;98576.03;;;17.47;nan
9831;BME280;4954;48.476;8.168;2024-02-15T10:42:47;98576.03;;;17.47;nan
9831;BME280;4954;48.476;8.168;2024-02-15T10:45:15;98569.63;;;17.70;nan
9831;BME280;4954;48.476;8.168;2024-02-15T10:47:50;98566.38;;;18.09;nan
9831;BME280;4954;48.476;8.168;2024-02-15T10:50:28;98561.69;;;18.32;nan
9831;BME280;4954;48.476;8.168;2024-02-15T10:53:06;98550.41;;;18.36;nan
9831;BME280;4954;48.476;8.168;2024-02-15T10:55:46;98554.31;;;18.96;nan
9831;BME280;4954;48.476;8.168;2024-02-15T10:58:32;98555.50;;;19.56;nan
9831;BME280;4954;48.476;8.168;2024-02-15T11:01:00;98549.81;;;19.77;nan
9831;BME280;4954;48.476;8.168;2024-02-15T11:03:35;98545.34;;;20.17;nan
9831;BME280;4954;48.476;8.168;2024-02-15T11:06:07;98536.25;;;20.33;nan
9831;BME280;4954;48.476;8.168;2024-02-15T11:08:42;98531.97;;;20.02;nan
9831;BME280;4954;48.476;8.168;2024-02-15T11:11:10;98527.72;;;19.99;nan
9831;BME280;4954;48.476;8.168;2024-02-15T11:13:40;98525.38;;;19.90;nan
9831;BME280;4954;48.476;8.168;2024-02-15T11:16:08;98521.56;;;19.71;nan
9831;BME280;4954;48.476;8.168;2024-02-15T11:19:08;98519.28;;;19.93;nan
9831;BME280;4954;48.476;8.168;2024-02-15T11:22:07;98523.41;;;19.66;nan
9831;BME280;4954;48.476;8.168;2024-02-15T11:24:46;98522.50;;;19.35;nan
9831;BME280;4954;48.476;8.168;2024-02-15T11:27:24;98512.38;;;19.93;nan
9831;BME280;4954;48.476;8.168;2024-02-15T11:29:57;98513.91;;;20.61;nan
9831;BME280;4954;48.476;8.168;2024-02-15T11:32:39;98512.25;;;20.89;nan
9831;BME280;4954;48.476;8.168;2024-02-15T11:35:12;98510.38;;;20.94;nan
9831;BME280;4954;48.476;8.168;2024-02-15T11:37:56;98505.72;;;21.31;nan
9831;BME280;4954;48.476;8.168;2024-02-15T11:41:02;98507.94;;;21.69;nan
9831;BME280;4954;48.476;8.168;2024-02-15T11:43:50;98502.44;;;22.03;nan
9831;BME280;4954;48.476;8.168;2024-02-15T11:46:32;98495.19;;;22.35;nan
9831;BME280;4954;48.476;8.168;2024-02-15T11:49:04;98489.63;;;22.47;nan
9831;BME280;4954;48.476;8.168;2024-02-15T11:51:33;98491.34;;;21.99;nan
9831;BME280;4954;48.476;8.168;2024-02-15T11:54:08;98485.88;;;21.84;nan
9831;BME280;4954;48.476;8.168;2024-02-15T11:56:55;98487.22;;;21.69;nan
9831;BME280;4954;48.476;8.168;2024-02-15T11:59:41;98479.41;;;21.71;nan
9831;BME280;4954;48.476;8.168;2024-02-15T12:02:19;98483.72;;;21.70;nan
9831;BME280;4954;48.476;8.168;2024-02-15T12:05:04;98484.22;;;21.03;nan
9831;BME280;4954;48.476;8.168;2024-02-15T12:07:50;98484.41;;;20.68;nan
9831;BME280;4954;48.476;8.168;2024-02-15T12:10:35;98479.91;;;20.46;nan
9831;BME280;4954;48.476;8.168;2024-02-15T12:13:19;98476.28;;;20.80;nan
9831;BME280;4954;48.476;8.168;2024-02-15T12:16:10;98465.22;;;21.04;nan
9831;BME280;4954;48.476;8.168;2024-02-15T12:19:11;98458.69;;;21.19;nan
9831;BME280;4954;48.476;8.168;2024-02-15T12:21:38;98446.03;;;20.82;nan
9831;BME280;4954;48.476;8.168;2024-02-15T12:24:15;98451.91;;;20.87;nan
9831;BME280;4954;48.476;8.168;2024-02-15T12:26:46;98436.84;;;20.72;nan
9831;BME280;4954;48.476;8.168;2024-02-15T12:29:16;98437.03;;;20.95;nan
9831;BME280;4954;48.476;8.168;2024-02-15T12:31:44;98427.53;;;20.96;nan
9831;BME280;4954;48.476;8.168;2024-02-15T12:34:11;98424.16;;;21.20;nan
9831;BME280;4954;48.476;8.168;2024-02-15T12:36:38;98417.91;;;21.25;nan
9831;BME280;4954;48.476;8.168;2024-02-15T12:39:09;98417.69;;;21.07;nan
9831;BME280;4954;48.476;8.168;2024-02-15T12:41:47;98414.63;;;21.20;nan
9831;BME280;4954;48.476;8.168;2024-02-15T12:44:16;98403.91;;;21.32;nan
9831;BME280;4954;48.476;8.168;2024-02-15T12:46:53;98403.69;;;21.38;nan
9831;BME280;4954;48.476;8.168;2024-02-15T12:52:39;98400.97;;;20.91;nan
9831;BME280;4954;48.476;8.168;2024-02-15T12:55:14;98405.53;;;20.81;nan
9831;BME280;4954;48.476;8.168;2024-02-15T12:57:43;98401.03;;;20.89;nan
9831;BME280;4954;48.476;8.168;2024-02-15T13:00:14;98396.25;;;20.76;nan
9831;BME280;4954;48.476;8.168;2024-02-15T13:02:45;98387.19;;;20.35;nan
9831;BME280;4954;48.476;8.168;2024-02-15T13:05:14;98384.66;;;20.87;nan
9831;BME280;4954;48.476;8.168;2024-02-15T13:07:44;98380.84;;;20.99;nan
9831;BME280;4954;48.476;8.168;2024-02-15T13:10:14;98370.22;;;21.08;nan
9831;BME280;4954;48.476;8.168;2024-02-15T13:12:41;98373.03;;;20.74;nan
9831;BME280;4954;48.476;8.168;2024-02-15T13:15:11;98363.41;;;20.52;nan
9831;BME280;4954;48.476;8.168;2024-02-15T13:17:42;98369.59;;;20.46;nan
9831;BME280;4954;48.476;8.168;2024-02-15T13:20:11;98360.31;;;20.68;nan
9831;BME280;4954;48.476;8.168;2024-02-15T13:22:39;98363.72;;;20.69;nan
9831;BME280;4954;48.476;8.168;2024-02-15T13:25:08;98366.47;;;20.64;nan
9831;BME280;4954;48.476;8.168;2024-02-15T13:27:37;98369.56;;;20.48;nan
9831;BME280;4954;48.476;8.168;2024-02-15T13:30:09;98362.88;;;20.41;nan
9831;BME280;4954;48.476;8.168;2024-02-15T13:32:38;98367.41;;;20.34;nan
9831;BME280;4954;48.476;8.168;2024-02-15T13:35:07;98360.47;;;20.07;nan
9831;BME280;4954;48.476;8.168;2024-02-15T13:37:47;98354.69;;;19.98;nan
9831;BME280;4954;48.476;8.168;2024-02-15T13:40:31;98352.06;;;19.38;nan
9831;BME280;4954;48.476;8.168;2024-02-15T13:43:00;98361.50;;;19.39;nan
9831;BME280;4954;48.476;8.168;2024-02-15T13:45:31;98353.91;;;19.35;nan
9831;BME280;4954;48.476;8.168;2024-02-15T13:48:03;98355.06;;;19.23;nan
9831;BME280;4954;48.476;8.168;2024-02-15T13:50:32;98351.66;;;19.21;nan
9831;BME280;4954;48.476;8.168;2024-02-15T13:53:00;98344.13;;;19.14;nan
9831;BME280;4954;48.476;8.168;2024-02-15T13:55:31;98344.13;;;19.14;nan
9831;BME280;4954;48.476;8.168;2024-02-15T13:58:04;98337.25;;;19.13;nan
9831;BME280;4954;48.476;8.168;2024-02-15T14:00:47;98332.41;;;19.01;nan
9831;BME280;4954;48.476;8.168;2024-02-15T14:03:14;98328.16;;;18.66;nan
9831;BME280;4954;48.476;8.168;2024-02-15T14:05:49;98325.84;;;18.54;nan
9831;BME280;4954;48.476;8.168;2024-02-15T14:08:16;98333.31;;;18.28;nan
9831;BME280;4954;48.476;8.168;2024-02-15T14:10:45;98324.53;;;18.38;nan
9831;BME280;4954;48.476;8.168;2024-02-15T14:13:14;98328.66;;;18.44;nan
9831;BME280;4954;48.476;8.168;2024-02-15T14:15:41;98326.38;;;18.33;nan
9831;BME280;4954;48.476;8.168;2024-02-15T14:18:09;98316.78;;;18.00;nan
9831;BME280;4954;48.476;8.168;2024-02-15T14:20:39;98317.84;;;17.90;nan